Gibbonsville, ID (83463)

12:06 AM MDT on August 30, 2016 (GMT -0600)
Alta meadow Ranch | | Change Station

Elev 5062 ft 45.60 °N, 114.32 °W | Updated 2 seconds ago

Clear
Clear
55.8 °F
Feels Like 55.8 °F
N
0.0
Wind Variable Wind from West
Gusts 0.0 mph

Today
High -- | Low -- °F
--% Chance of Precip.
Yesterday
High -- | Low -- °F
Precip. -- in
Pressure 30.01 in
Visibility 10.0 miles
Clouds Clear
Dew Point 32 °F
Humidity 41%
Rainfall 0.00 in
Snow Depth Not available.
6:55 AM 8:16 PM
Waning Crescent, 5% visible
METAR KLLJ 300555Z AUTO 00000KT 10SM CLR 19/M01 A3019 RMK AO2 SLP161 T01941011 10317 20172 53009
Pressure 30.01 in
Visibility 10.0 miles
Clouds Clear
Dew Point 32 °F
Humidity 41%
Rainfall 0.00 in
Snow Depth Not available.
6:55 AM 8:16 PM
Waning Crescent, 5% visible
METAR KLLJ 300555Z AUTO 00000KT 10SM CLR 19/M01 A3019 RMK AO2 SLP161 T01941011 10317 20172 53009

10-Day Weather Forecast

Almanac

Astronomy

Aug. 30, 2016 Rise Set
Actual Time
Civil Twilight
Nautical Twilight
Astronomical Twilight
Moon
Length of Visible Light
Length of Day
Tomorrow will be .
, % of the Moon is Illuminated

Today's Extremes

State Highs State Lows

Community

WunderPhotos

Upload Photos

1,935,794 photos uploaded!

WunderBlog® & News

Nearby

Air Quality

  Air Quality AQ Index Pollutant
Not available.

Snow Depth

Station Depth Elevation

Earthquake Activity

City Distance Mag. Time & Date
Minimum magnitude displayed is 2.5.

Coastal Water Temperatures

Place Temperature

Stations

Nearby Weather Stations

Station Location Temp. Windchill Dew Point Humidity Wind Precip. Elev Updated Type
                   

Watches & Warnings

There are currently no watches in effect.